sensor_id;sensor_type;location;lat;lon;timestamp;P1;durP1;ratioP1;P2;durP2;ratioP2
70150;SDS011;57517;43.562;19.540;2024-02-14T00:00:06;30.08;;;21.33;;
70150;SDS011;57517;43.562;19.540;2024-02-14T00:02:38;30.27;;;19.65;;
70150;SDS011;57517;43.562;19.540;2024-02-14T00:05:06;23.77;;;18.27;;
70150;SDS011;57517;43.562;19.540;2024-02-14T00:07:32;24.75;;;19.35;;
70150;SDS011;57517;43.562;19.540;2024-02-14T00:09:58;21.65;;;16.45;;
70150;SDS011;57517;43.562;19.540;2024-02-14T00:12:23;26.60;;;18.27;;
70150;SDS011;57517;43.562;19.540;2024-02-14T00:14:50;24.10;;;18.20;;
70150;SDS011;57517;43.562;19.540;2024-02-14T00:17:16;24.35;;;17.73;;
70150;SDS011;57517;43.562;19.540;2024-02-14T00:19:41;22.50;;;16.88;;
70150;SDS011;57517;43.562;19.540;2024-02-14T00:22:07;24.20;;;17.58;;
70150;SDS011;57517;43.562;19.540;2024-02-14T00:24:33;23.05;;;17.13;;
70150;SDS011;57517;43.562;19.540;2024-02-14T00:27:01;22.50;;;16.05;;
70150;SDS011;57517;43.562;19.540;2024-02-14T00:29:28;23.30;;;16.52;;
70150;SDS011;57517;43.562;19.540;2024-02-14T00:31:54;24.50;;;18.05;;
70150;SDS011;57517;43.562;19.540;2024-02-14T00:34:20;23.92;;;16.88;;
70150;SDS011;57517;43.562;19.540;2024-02-14T00:36:46;20.05;;;15.68;;
70150;SDS011;57517;43.562;19.540;2024-02-14T00:39:12;23.05;;;16.85;;
70150;SDS011;57517;43.562;19.540;2024-02-14T00:41:37;25.45;;;18.30;;
70150;SDS011;57517;43.562;19.540;2024-02-14T00:44:03;21.02;;;16.52;;
70150;SDS011;57517;43.562;19.540;2024-02-14T00:46:29;24.35;;;18.35;;
70150;SDS011;57517;43.562;19.540;2024-02-14T00:48:55;20.02;;;16.25;;
70150;SDS011;57517;43.562;19.540;2024-02-14T00:51:21;21.23;;;15.85;;
70150;SDS011;57517;43.562;19.540;2024-02-14T00:53:47;18.83;;;15.65;;
70150;SDS011;57517;43.562;19.540;2024-02-14T00:56:13;20.85;;;16.13;;
70150;SDS011;57517;43.562;19.540;2024-02-14T00:58:39;20.95;;;15.48;;
70150;SDS011;57517;43.562;19.540;2024-02-14T01:01:05;18.38;;;15.10;;
70150;SDS011;57517;43.562;19.540;2024-02-14T01:03:31;22.90;;;16.90;;
70150;SDS011;57517;43.562;19.540;2024-02-14T01:05:56;22.55;;;16.77;;
70150;SDS011;57517;43.562;19.540;2024-02-14T01:08:23;38.22;;;26.73;;
70150;SDS011;57517;43.562;19.540;2024-02-14T01:10:49;33.17;;;25.67;;
70150;SDS011;57517;43.562;19.540;2024-02-14T01:13:17;36.90;;;25.08;;
70150;SDS011;57517;43.562;19.540;2024-02-14T01:15:43;25.20;;;18.80;;
70150;SDS011;57517;43.562;19.540;2024-02-14T01:18:09;20.00;;;14.40;;
70150;SDS011;57517;43.562;19.540;2024-02-14T01:20:35;12.75;;;9.52;;
70150;SDS011;57517;43.562;19.540;2024-02-14T01:23:02;12.52;;;9.23;;
70150;SDS011;57517;43.562;19.540;2024-02-14T01:25:28;10.63;;;8.25;;
70150;SDS011;57517;43.562;19.540;2024-02-14T01:27:54;13.90;;;8.63;;
70150;SDS011;57517;43.562;19.540;2024-02-14T01:30:21;13.68;;;9.05;;
70150;SDS011;57517;43.562;19.540;2024-02-14T01:32:46;12.23;;;7.93;;
70150;SDS011;57517;43.562;19.540;2024-02-14T01:35:12;12.70;;;9.35;;
70150;SDS011;57517;43.562;19.540;2024-02-14T01:37:38;15.45;;;11.48;;
70150;SDS011;57517;43.562;19.540;2024-02-14T01:40:05;16.08;;;13.02;;
70150;SDS011;57517;43.562;19.540;2024-02-14T01:42:32;19.50;;;13.70;;
70150;SDS011;57517;43.562;19.540;2024-02-14T01:44:58;19.08;;;13.75;;
70150;SDS011;57517;43.562;19.540;2024-02-14T01:47:24;18.20;;;13.45;;
70150;SDS011;57517;43.562;19.540;2024-02-14T01:49:50;17.23;;;12.98;;
70150;SDS011;57517;43.562;19.540;2024-02-14T01:52:16;18.52;;;12.70;;
70150;SDS011;57517;43.562;19.540;2024-02-14T01:54:42;15.60;;;12.10;;
70150;SDS011;57517;43.562;19.540;2024-02-14T01:57:08;15.13;;;11.75;;
70150;SDS011;57517;43.562;19.540;2024-02-14T01:59:36;17.98;;;12.85;;
70150;SDS011;57517;43.562;19.540;2024-02-14T02:02:02;16.40;;;12.32;;
70150;SDS011;57517;43.562;19.540;2024-02-14T02:04:32;16.67;;;12.48;;
70150;SDS011;57517;43.562;19.540;2024-02-14T02:06:58;15.68;;;12.48;;
70150;SDS011;57517;43.562;19.540;2024-02-14T02:09:24;15.50;;;12.52;;
70150;SDS011;57517;43.562;19.540;2024-02-14T02:11:50;17.60;;;12.98;;
70150;SDS011;57517;43.562;19.540;2024-02-14T02:14:21;16.00;;;11.60;;
70150;SDS011;57517;43.562;19.540;2024-02-14T02:16:47;14.13;;;10.65;;
70150;SDS011;57517;43.562;19.540;2024-02-14T02:19:14;12.95;;;10.57;;
70150;SDS011;57517;43.562;19.540;2024-02-14T02:21:43;13.95;;;10.93;;
70150;SDS011;57517;43.562;19.540;2024-02-14T02:24:11;12.63;;;9.43;;
70150;SDS011;57517;43.562;19.540;2024-02-14T02:26:37;12.77;;;9.80;;
70150;SDS011;57517;43.562;19.540;2024-02-14T02:29:02;14.00;;;10.13;;
70150;SDS011;57517;43.562;19.540;2024-02-14T02:31:30;14.68;;;10.23;;
70150;SDS011;57517;43.562;19.540;2024-02-14T02:33:56;17.80;;;11.07;;
70150;SDS011;57517;43.562;19.540;2024-02-14T02:36:22;17.55;;;11.93;;
70150;SDS011;57517;43.562;19.540;2024-02-14T02:38:49;14.02;;;11.35;;
70150;SDS011;57517;43.562;19.540;2024-02-14T02:41:15;15.15;;;12.30;;
70150;SDS011;57517;43.562;19.540;2024-02-14T02:43:41;16.88;;;12.23;;
70150;SDS011;57517;43.562;19.540;2024-02-14T02:46:11;14.60;;;11.13;;
70150;SDS011;57517;43.562;19.540;2024-02-14T02:48:36;14.98;;;10.82;;
70150;SDS011;57517;43.562;19.540;2024-02-14T02:51:02;13.93;;;10.18;;
70150;SDS011;57517;43.562;19.540;2024-02-14T02:53:28;14.82;;;10.77;;
70150;SDS011;57517;43.562;19.540;2024-02-14T02:55:54;14.00;;;10.00;;
70150;SDS011;57517;43.562;19.540;2024-02-14T02:58:22;18.63;;;12.35;;
70150;SDS011;57517;43.562;19.540;2024-02-14T03:00:48;19.83;;;14.73;;
70150;SDS011;57517;43.562;19.540;2024-02-14T03:03:18;24.58;;;17.27;;
70150;SDS011;57517;43.562;19.540;2024-02-14T03:05:44;26.25;;;19.00;;
70150;SDS011;57517;43.562;19.540;2024-02-14T03:08:10;18.52;;;13.68;;
70150;SDS011;57517;43.562;19.540;2024-02-14T03:10:40;13.77;;;10.23;;
70150;SDS011;57517;43.562;19.540;2024-02-14T03:13:06;15.32;;;10.55;;
70150;SDS011;57517;43.562;19.540;2024-02-14T03:15:36;10.77;;;8.80;;
70150;SDS011;57517;43.562;19.540;2024-02-14T03:18:03;11.57;;;8.32;;
70150;SDS011;57517;43.562;19.540;2024-02-14T03:20:34;13.27;;;8.48;;
70150;SDS011;57517;43.562;19.540;2024-02-14T03:23:01;12.63;;;8.80;;
70150;SDS011;57517;43.562;19.540;2024-02-14T03:25:29;16.70;;;12.38;;
70150;SDS011;57517;43.562;19.540;2024-02-14T03:27:55;21.52;;;15.35;;
70150;SDS011;57517;43.562;19.540;2024-02-14T03:30:22;22.35;;;15.23;;
70150;SDS011;57517;43.562;19.540;2024-02-14T03:32:51;19.35;;;14.20;;
70150;SDS011;57517;43.562;19.540;2024-02-14T03:35:17;19.33;;;13.73;;
70150;SDS011;57517;43.562;19.540;2024-02-14T03:37:45;22.20;;;14.57;;
70150;SDS011;57517;43.562;19.540;2024-02-14T03:40:14;20.65;;;14.32;;
70150;SDS011;57517;43.562;19.540;2024-02-14T03:42:40;21.77;;;14.93;;
70150;SDS011;57517;43.562;19.540;2024-02-14T03:45:07;20.42;;;14.77;;
70150;SDS011;57517;43.562;19.540;2024-02-14T03:47:33;22.50;;;16.42;;
70150;SDS011;57517;43.562;19.540;2024-02-14T03:49:59;26.35;;;17.65;;
70150;SDS011;57517;43.562;19.540;2024-02-14T03:52:25;23.85;;;16.77;;
70150;SDS011;57517;43.562;19.540;2024-02-14T03:54:51;22.60;;;17.00;;
70150;SDS011;57517;43.562;19.540;2024-02-14T03:57:17;22.35;;;16.65;;
70150;SDS011;57517;43.562;19.540;2024-02-14T03:59:46;24.60;;;17.92;;
70150;SDS011;57517;43.562;19.540;2024-02-14T04:02:12;23.90;;;17.23;;
70150;SDS011;57517;43.562;19.540;2024-02-14T04:04:38;20.98;;;16.02;;
70150;SDS011;57517;43.562;19.540;2024-02-14T04:07:07;22.27;;;16.13;;
70150;SDS011;57517;43.562;19.540;2024-02-14T04:09:36;17.95;;;14.23;;
70150;SDS011;57517;43.562;19.540;2024-02-14T04:12:01;19.08;;;14.93;;
70150;SDS011;57517;43.562;19.540;2024-02-14T04:14:28;25.08;;;18.30;;
70150;SDS011;57517;43.562;19.540;2024-02-14T04:16:54;23.45;;;16.58;;
70150;SDS011;57517;43.562;19.540;2024-02-14T04:19:20;21.60;;;16.35;;
70150;SDS011;57517;43.562;19.540;2024-02-14T04:21:46;20.17;;;15.13;;
70150;SDS011;57517;43.562;19.540;2024-02-14T04:24:12;21.83;;;17.52;;
70150;SDS011;57517;43.562;19.540;2024-02-14T04:26:38;22.45;;;17.80;;
70150;SDS011;57517;43.562;19.540;2024-02-14T04:29:04;22.17;;;17.30;;
70150;SDS011;57517;43.562;19.540;2024-02-14T04:31:30;23.50;;;16.85;;
70150;SDS011;57517;43.562;19.540;2024-02-14T04:33:57;22.05;;;17.00;;
70150;SDS011;57517;43.562;19.540;2024-02-14T04:36:23;26.40;;;17.10;;
70150;SDS011;57517;43.562;19.540;2024-02-14T04:38:49;25.75;;;18.17;;
70150;SDS011;57517;43.562;19.540;2024-02-14T04:41:15;22.55;;;17.00;;
70150;SDS011;57517;43.562;19.540;2024-02-14T04:43:41;23.00;;;16.33;;
70150;SDS011;57517;43.562;19.540;2024-02-14T04:46:08;26.20;;;17.85;;
70150;SDS011;57517;43.562;19.540;2024-02-14T04:48:37;23.23;;;18.95;;
70150;SDS011;57517;43.562;19.540;2024-02-14T04:51:03;21.02;;;16.90;;
70150;SDS011;57517;43.562;19.540;2024-02-14T04:53:32;27.20;;;18.85;;
70150;SDS011;57517;43.562;19.540;2024-02-14T04:55:58;24.88;;;17.83;;
70150;SDS011;57517;43.562;19.540;2024-02-14T04:58:24;23.10;;;17.65;;
70150;SDS011;57517;43.562;19.540;2024-02-14T05:00:52;25.83;;;20.75;;
70150;SDS011;57517;43.562;19.540;2024-02-14T05:03:20;28.05;;;20.00;;
70150;SDS011;57517;43.562;19.540;2024-02-14T05:05:46;25.90;;;20.40;;
70150;SDS011;57517;43.562;19.540;2024-02-14T05:08:12;32.00;;;21.70;;
70150;SDS011;57517;43.562;19.540;2024-02-14T05:10:37;25.45;;;20.35;;
70150;SDS011;57517;43.562;19.540;2024-02-14T05:13:03;25.33;;;19.42;;
70150;SDS011;57517;43.562;19.540;2024-02-14T05:15:29;24.90;;;17.88;;
70150;SDS011;57517;43.562;19.540;2024-02-14T05:17:55;25.67;;;20.25;;
70150;SDS011;57517;43.562;19.540;2024-02-14T05:20:21;28.10;;;20.13;;
70150;SDS011;57517;43.562;19.540;2024-02-14T05:22:47;21.73;;;17.70;;
70150;SDS011;57517;43.562;19.540;2024-02-14T05:25:13;21.17;;;16.58;;
70150;SDS011;57517;43.562;19.540;2024-02-14T05:27:38;18.27;;;15.38;;
70150;SDS011;57517;43.562;19.540;2024-02-14T05:30:04;23.30;;;19.45;;
70150;SDS011;57517;43.562;19.540;2024-02-14T05:32:34;27.75;;;21.90;;
70150;SDS011;57517;43.562;19.540;2024-02-14T05:35:00;22.70;;;19.00;;
70150;SDS011;57517;43.562;19.540;2024-02-14T05:37:26;25.00;;;19.88;;
70150;SDS011;57517;43.562;19.540;2024-02-14T05:39:55;26.25;;;19.58;;
70150;SDS011;57517;43.562;19.540;2024-02-14T05:42:21;21.90;;;17.52;;
70150;SDS011;57517;43.562;19.540;2024-02-14T05:44:48;26.20;;;19.02;;
70150;SDS011;57517;43.562;19.540;2024-02-14T05:47:13;27.60;;;19.80;;
70150;SDS011;57517;43.562;19.540;2024-02-14T05:49:40;25.83;;;20.45;;
70150;SDS011;57517;43.562;19.540;2024-02-14T05:52:06;22.50;;;18.00;;
70150;SDS011;57517;43.562;19.540;2024-02-14T05:54:33;21.73;;;17.85;;
70150;SDS011;57517;43.562;19.540;2024-02-14T05:56:59;23.08;;;18.10;;
70150;SDS011;57517;43.562;19.540;2024-02-14T05:59:29;28.60;;;22.60;;
70150;SDS011;57517;43.562;19.540;2024-02-14T06:01:55;24.33;;;19.58;;
70150;SDS011;57517;43.562;19.540;2024-02-14T06:04:21;22.67;;;18.98;;
70150;SDS011;57517;43.562;19.540;2024-02-14T06:06:47;24.65;;;18.98;;
70150;SDS011;57517;43.562;19.540;2024-02-14T06:09:13;26.17;;;18.80;;
70150;SDS011;57517;43.562;19.540;2024-02-14T06:11:39;25.98;;;20.92;;
70150;SDS011;57517;43.562;19.540;2024-02-14T06:14:05;25.40;;;20.55;;
70150;SDS011;57517;43.562;19.540;2024-02-14T06:16:32;19.67;;;16.02;;
70150;SDS011;57517;43.562;19.540;2024-02-14T06:18:58;24.63;;;18.17;;
70150;SDS011;57517;43.562;19.540;2024-02-14T06:21:24;30.63;;;24.95;;
70150;SDS011;57517;43.562;19.540;2024-02-14T06:23:51;31.45;;;25.38;;
70150;SDS011;57517;43.562;19.540;2024-02-14T06:26:17;28.58;;;23.83;;
70150;SDS011;57517;43.562;19.540;2024-02-14T06:28:46;29.50;;;22.20;;
70150;SDS011;57517;43.562;19.540;2024-02-14T06:31:11;28.20;;;20.88;;
70150;SDS011;57517;43.562;19.540;2024-02-14T06:33:37;27.17;;;20.88;;
70150;SDS011;57517;43.562;19.540;2024-02-14T06:36:03;29.75;;;23.50;;
70150;SDS011;57517;43.562;19.540;2024-02-14T06:38:31;32.28;;;24.98;;
70150;SDS011;57517;43.562;19.540;2024-02-14T06:40:56;31.95;;;26.88;;
70150;SDS011;57517;43.562;19.540;2024-02-14T06:43:22;38.65;;;27.98;;
70150;SDS011;57517;43.562;19.540;2024-02-14T06:45:48;41.13;;;29.95;;
70150;SDS011;57517;43.562;19.540;2024-02-14T06:48:14;40.90;;;31.92;;
70150;SDS011;57517;43.562;19.540;2024-02-14T06:50:39;40.03;;;32.05;;
70150;SDS011;57517;43.562;19.540;2024-02-14T06:53:06;42.75;;;32.50;;
70150;SDS011;57517;43.562;19.540;2024-02-14T06:55:32;45.30;;;33.13;;
70150;SDS011;57517;43.562;19.540;2024-02-14T06:57:58;42.15;;;30.88;;
70150;SDS011;57517;43.562;19.540;2024-02-14T07:00:26;56.75;;;45.03;;
70150;SDS011;57517;43.562;19.540;2024-02-14T07:02:55;52.08;;;40.53;;
70150;SDS011;57517;43.562;19.540;2024-02-14T07:05:21;48.65;;;38.45;;
70150;SDS011;57517;43.562;19.540;2024-02-14T07:07:47;45.60;;;37.20;;
70150;SDS011;57517;43.562;19.540;2024-02-14T07:10:13;47.30;;;35.85;;
70150;SDS011;57517;43.562;19.540;2024-02-14T07:12:38;38.47;;;31.60;;
70150;SDS011;57517;43.562;19.540;2024-02-14T07:15:05;42.20;;;31.13;;
70150;SDS011;57517;43.562;19.540;2024-02-14T07:17:31;40.42;;;31.73;;
70150;SDS011;57517;43.562;19.540;2024-02-14T07:19:57;43.38;;;32.22;;
70150;SDS011;57517;43.562;19.540;2024-02-14T07:22:24;34.53;;;26.30;;
70150;SDS011;57517;43.562;19.540;2024-02-14T07:24:49;29.15;;;25.20;;
70150;SDS011;57517;43.562;19.540;2024-02-14T07:27:15;31.23;;;24.30;;
70150;SDS011;57517;43.562;19.540;2024-02-14T07:29:41;26.20;;;20.67;;
70150;SDS011;57517;43.562;19.540;2024-02-14T07:32:07;19.48;;;15.85;;
70150;SDS011;57517;43.562;19.540;2024-02-14T07:34:33;18.02;;;14.05;;
70150;SDS011;57517;43.562;19.540;2024-02-14T07:36:59;16.27;;;14.13;;
70150;SDS011;57517;43.562;19.540;2024-02-14T07:39:25;24.40;;;19.50;;
70150;SDS011;57517;43.562;19.540;2024-02-14T07:41:51;20.52;;;16.98;;
70150;SDS011;57517;43.562;19.540;2024-02-14T07:44:17;20.48;;;18.20;;
70150;SDS011;57517;43.562;19.540;2024-02-14T07:46:43;18.77;;;15.50;;
70150;SDS011;57517;43.562;19.540;2024-02-14T07:49:09;25.85;;;18.58;;
70150;SDS011;57517;43.562;19.540;2024-02-14T07:51:36;20.40;;;16.50;;
70150;SDS011;57517;43.562;19.540;2024-02-14T07:54:04;29.05;;;21.02;;
70150;SDS011;57517;43.562;19.540;2024-02-14T07:56:30;35.22;;;24.52;;
70150;SDS011;57517;43.562;19.540;2024-02-14T07:58:56;30.48;;;20.50;;
70150;SDS011;57517;43.562;19.540;2024-02-14T08:01:23;21.10;;;14.95;;
70150;SDS011;57517;43.562;19.540;2024-02-14T08:03:50;20.70;;;15.43;;
70150;SDS011;57517;43.562;19.540;2024-02-14T08:06:16;20.05;;;17.48;;
70150;SDS011;57517;43.562;19.540;2024-02-14T08:08:42;18.60;;;15.90;;
70150;SDS011;57517;43.562;19.540;2024-02-14T08:11:11;27.80;;;22.08;;
70150;SDS011;57517;43.562;19.540;2024-02-14T08:13:37;17.10;;;13.85;;
70150;SDS011;57517;43.562;19.540;2024-02-14T08:16:05;28.17;;;22.17;;
70150;SDS011;57517;43.562;19.540;2024-02-14T08:18:32;46.22;;;31.55;;
70150;SDS011;57517;43.562;19.540;2024-02-14T08:20:57;22.98;;;17.60;;
70150;SDS011;57517;43.562;19.540;2024-02-14T08:23:23;25.25;;;19.42;;
70150;SDS011;57517;43.562;19.540;2024-02-14T08:25:49;15.48;;;12.45;;
70150;SDS011;57517;43.562;19.540;2024-02-14T08:28:15;16.02;;;13.00;;
70150;SDS011;57517;43.562;19.540;2024-02-14T08:30:43;21.95;;;16.05;;
70150;SDS011;57517;43.562;19.540;2024-02-14T08:33:09;42.13;;;27.80;;
70150;SDS011;57517;43.562;19.540;2024-02-14T08:35:36;36.88;;;25.63;;
70150;SDS011;57517;43.562;19.540;2024-02-14T08:38:01;31.45;;;21.85;;
70150;SDS011;57517;43.562;19.540;2024-02-14T08:40:27;26.27;;;20.30;;
70150;SDS011;57517;43.562;19.540;2024-02-14T08:42:53;40.75;;;29.77;;
70150;SDS011;57517;43.562;19.540;2024-02-14T08:45:19;41.92;;;29.55;;
70150;SDS011;57517;43.562;19.540;2024-02-14T08:47:45;28.40;;;22.48;;
70150;SDS011;57517;43.562;19.540;2024-02-14T08:50:11;21.50;;;18.10;;
70150;SDS011;57517;43.562;19.540;2024-02-14T08:52:37;29.17;;;22.67;;
70150;SDS011;57517;43.562;19.540;2024-02-14T08:55:03;30.70;;;23.00;;
70150;SDS011;57517;43.562;19.540;2024-02-14T08:57:31;52.85;;;37.17;;
70150;SDS011;57517;43.562;19.540;2024-02-14T08:59:57;33.42;;;23.30;;
70150;SDS011;57517;43.562;19.540;2024-02-14T09:02:23;22.40;;;18.90;;
70150;SDS011;57517;43.562;19.540;2024-02-14T09:04:50;20.77;;;16.98;;
70150;SDS011;57517;43.562;19.540;2024-02-14T09:07:16;21.10;;;18.38;;
70150;SDS011;57517;43.562;19.540;2024-02-14T09:09:42;21.42;;;19.00;;
70150;SDS011;57517;43.562;19.540;2024-02-14T09:12:07;23.35;;;19.98;;
70150;SDS011;57517;43.562;19.540;2024-02-14T09:14:33;34.33;;;23.10;;
70150;SDS011;57517;43.562;19.540;2024-02-14T09:16:59;23.55;;;17.38;;
70150;SDS011;57517;43.562;19.540;2024-02-14T09:19:26;15.45;;;12.38;;
70150;SDS011;57517;43.562;19.540;2024-02-14T09:21:53;13.00;;;11.07;;
70150;SDS011;57517;43.562;19.540;2024-02-14T09:24:18;19.35;;;16.58;;
70150;SDS011;57517;43.562;19.540;2024-02-14T09:26:44;33.35;;;23.90;;
70150;SDS011;57517;43.562;19.540;2024-02-14T09:29:10;35.45;;;28.42;;
70150;SDS011;57517;43.562;19.540;2024-02-14T09:31:36;34.40;;;25.15;;
70150;SDS011;57517;43.562;19.540;2024-02-14T09:34:02;37.05;;;25.27;;
70150;SDS011;57517;43.562;19.540;2024-02-14T09:36:28;12.43;;;10.57;;
70150;SDS011;57517;43.562;19.540;2024-02-14T09:38:55;16.48;;;12.45;;
70150;SDS011;57517;43.562;19.540;2024-02-14T09:41:25;17.35;;;14.63;;
70150;SDS011;57517;43.562;19.540;2024-02-14T09:43:55;59.97;;;40.13;;
70150;SDS011;57517;43.562;19.540;2024-02-14T09:46:23;18.35;;;13.50;;
70150;SDS011;57517;43.562;19.540;2024-02-14T09:48:52;12.80;;;10.32;;
70150;SDS011;57517;43.562;19.540;2024-02-14T09:51:20;81.85;;;58.58;;
70150;SDS011;57517;43.562;19.540;2024-02-14T09:53:46;39.83;;;27.90;;
70150;SDS011;57517;43.562;19.540;2024-02-14T09:56:13;43.97;;;33.92;;
70150;SDS011;57517;43.562;19.540;2024-02-14T09:58:43;87.38;;;64.28;;
70150;SDS011;57517;43.562;19.540;2024-02-14T10:01:09;51.13;;;40.83;;
70150;SDS011;57517;43.562;19.540;2024-02-14T10:03:35;9.30;;;6.60;;
70150;SDS011;57517;43.562;19.540;2024-02-14T10:06:01;25.77;;;23.27;;
70150;SDS011;57517;43.562;19.540;2024-02-14T10:08:29;9.85;;;8.50;;
70150;SDS011;57517;43.562;19.540;2024-02-14T10:10:56;12.57;;;11.27;;
70150;SDS011;57517;43.562;19.540;2024-02-14T10:13:26;30.05;;;27.25;;
70150;SDS011;57517;43.562;19.540;2024-02-14T10:15:53;19.65;;;17.85;;
70150;SDS011;57517;43.562;19.540;2024-02-14T10:18:20;19.65;;;17.58;;
70150;SDS011;57517;43.562;19.540;2024-02-14T10:20:56;20.50;;;18.52;;
70150;SDS011;57517;43.562;19.540;2024-02-14T10:23:22;13.40;;;11.70;;
70150;SDS011;57517;43.562;19.540;2024-02-14T10:25:49;14.93;;;13.38;;
70150;SDS011;57517;43.562;19.540;2024-02-14T10:28:16;10.70;;;9.60;;
70150;SDS011;57517;43.562;19.540;2024-02-14T10:30:45;10.70;;;9.55;;
70150;SDS011;57517;43.562;19.540;2024-02-14T10:33:11;10.68;;;8.82;;
70150;SDS011;57517;43.562;19.540;2024-02-14T10:35:37;9.60;;;8.18;;
70150;SDS011;57517;43.562;19.540;2024-02-14T10:38:06;7.35;;;5.97;;
70150;SDS011;57517;43.562;19.540;2024-02-14T10:40:34;8.48;;;7.43;;
70150;SDS011;57517;43.562;19.540;2024-02-14T10:43:03;11.70;;;8.30;;
70150;SDS011;57517;43.562;19.540;2024-02-14T10:45:34;8.85;;;6.88;;
70150;SDS011;57517;43.562;19.540;2024-02-14T10:48:01;8.50;;;7.00;;
70150;SDS011;57517;43.562;19.540;2024-02-14T10:50:33;12.02;;;10.80;;
70150;SDS011;57517;43.562;19.540;2024-02-14T10:53:05;8.95;;;6.60;;
70150;SDS011;57517;43.562;19.540;2024-02-14T10:55:32;8.07;;;7.22;;
70150;SDS011;57517;43.562;19.540;2024-02-14T10:58:00;9.55;;;8.35;;
70150;SDS011;57517;43.562;19.540;2024-02-14T11:00:27;9.20;;;7.68;;
70150;SDS011;57517;43.562;19.540;2024-02-14T11:02:55;14.10;;;11.52;;
70150;SDS011;57517;43.562;19.540;2024-02-14T11:05:21;12.10;;;9.50;;
70150;SDS011;57517;43.562;19.540;2024-02-14T11:07:50;16.40;;;10.63;;
70150;SDS011;57517;43.562;19.540;2024-02-14T11:10:20;11.20;;;9.30;;
70150;SDS011;57517;43.562;19.540;2024-02-14T11:12:47;9.70;;;8.38;;
70150;SDS011;57517;43.562;19.540;2024-02-14T11:15:22;13.40;;;10.60;;
70150;SDS011;57517;43.562;19.540;2024-02-14T11:20:21;13.23;;;10.30;;
70150;SDS011;57517;43.562;19.540;2024-02-14T11:22:57;13.43;;;10.30;;
70150;SDS011;57517;43.562;19.540;2024-02-14T11:25:36;8.65;;;6.95;;
70150;SDS011;57517;43.562;19.540;2024-02-14T11:28:14;7.93;;;6.05;;
70150;SDS011;57517;43.562;19.540;2024-02-14T11:30:41;22.30;;;15.00;;
70150;SDS011;57517;43.562;19.540;2024-02-14T11:33:21;15.02;;;9.55;;
70150;SDS011;57517;43.562;19.540;2024-02-14T11:35:52;12.27;;;8.38;;
70150;SDS011;57517;43.562;19.540;2024-02-14T11:38:20;10.15;;;7.45;;
70150;SDS011;57517;43.562;19.540;2024-02-14T11:40:47;9.18;;;6.85;;
70150;SDS011;57517;43.562;19.540;2024-02-14T11:43:18;11.23;;;9.25;;
70150;SDS011;57517;43.562;19.540;2024-02-14T11:45:47;8.88;;;7.13;;
70150;SDS011;57517;43.562;19.540;2024-02-14T11:48:17;7.75;;;5.70;;
70150;SDS011;57517;43.562;19.540;2024-02-14T11:50:45;16.08;;;13.45;;
70150;SDS011;57517;43.562;19.540;2024-02-14T11:53:12;10.10;;;8.10;;
70150;SDS011;57517;43.562;19.540;2024-02-14T11:55:41;9.60;;;6.75;;
70150;SDS011;57517;43.562;19.540;2024-02-14T11:58:07;8.77;;;5.97;;
70150;SDS011;57517;43.562;19.540;2024-02-14T12:00:41;13.63;;;9.90;;
70150;SDS011;57517;43.562;19.540;2024-02-14T12:03:12;9.35;;;6.80;;
70150;SDS011;57517;43.562;19.540;2024-02-14T12:05:40;10.05;;;7.90;;
70150;SDS011;57517;43.562;19.540;2024-02-14T12:08:09;10.70;;;8.45;;
70150;SDS011;57517;43.562;19.540;2024-02-14T12:10:35;9.40;;;7.40;;
70150;SDS011;57517;43.562;19.540;2024-02-14T12:13:08;10.48;;;5.32;;
70150;SDS011;57517;43.562;19.540;2024-02-14T12:15:52;6.38;;;5.00;;
70150;SDS011;57517;43.562;19.540;2024-02-14T12:18:19;10.18;;;7.88;;
70150;SDS011;57517;43.562;19.540;2024-02-14T12:20:45;27.73;;;14.63;;
70150;SDS011;57517;43.562;19.540;2024-02-14T12:23:17;8.73;;;6.20;;
70150;SDS011;57517;43.562;19.540;2024-02-14T12:25:44;14.55;;;9.25;;
70150;SDS011;57517;43.562;19.540;2024-02-14T12:28:15;11.70;;;8.40;;
70150;SDS011;57517;43.562;19.540;2024-02-14T12:30:46;18.38;;;10.98;;
70150;SDS011;57517;43.562;19.540;2024-02-14T12:33:21;11.32;;;8.10;;
70150;SDS011;57517;43.562;19.540;2024-02-14T12:35:49;9.15;;;6.22;;
70150;SDS011;57517;43.562;19.540;2024-02-14T12:38:17;10.90;;;6.97;;
70150;SDS011;57517;43.562;19.540;2024-02-14T12:40:44;8.48;;;6.40;;
70150;SDS011;57517;43.562;19.540;2024-02-14T12:43:11;10.57;;;7.05;;
70150;SDS011;57517;43.562;19.540;2024-02-14T12:45:38;11.23;;;7.43;;
70150;SDS011;57517;43.562;19.540;2024-02-14T12:48:05;17.30;;;8.82;;
70150;SDS011;57517;43.562;19.540;2024-02-14T12:50:35;12.60;;;8.45;;
70150;SDS011;57517;43.562;19.540;2024-02-14T12:53:04;10.07;;;6.72;;
70150;SDS011;57517;43.562;19.540;2024-02-14T12:55:31;12.25;;;8.43;;
70150;SDS011;57517;43.562;19.540;2024-02-14T12:57:58;8.80;;;6.68;;
70150;SDS011;57517;43.562;19.540;2024-02-14T13:00:24;10.02;;;6.50;;
70150;SDS011;57517;43.562;19.540;2024-02-14T13:02:51;45.92;;;24.60;;
70150;SDS011;57517;43.562;19.540;2024-02-14T13:05:18;26.58;;;17.77;;
70150;SDS011;57517;43.562;19.540;2024-02-14T13:10:36;16.77;;;11.05;;
70150;SDS011;57517;43.562;19.540;2024-02-14T13:13:02;47.40;;;26.27;;
70150;SDS011;57517;43.562;19.540;2024-02-14T13:15:28;22.55;;;12.25;;
70150;SDS011;57517;43.562;19.540;2024-02-14T13:17:54;15.07;;;8.80;;
70150;SDS011;57517;43.562;19.540;2024-02-14T13:20:21;22.90;;;12.75;;
70150;SDS011;57517;43.562;19.540;2024-02-14T13:22:47;22.05;;;13.23;;
70150;SDS011;57517;43.562;19.540;2024-02-14T13:25:12;29.08;;;17.88;;
70150;SDS011;57517;43.562;19.540;2024-02-14T13:27:39;65.97;;;31.38;;
70150;SDS011;57517;43.562;19.540;2024-02-14T13:30:05;16.65;;;11.20;;
70150;SDS011;57517;43.562;19.540;2024-02-14T13:32:34;12.93;;;11.38;;
70150;SDS011;57517;43.562;19.540;2024-02-14T13:35:00;16.40;;;11.80;;
70150;SDS011;57517;43.562;19.540;2024-02-14T13:37:26;16.52;;;11.02;;
70150;SDS011;57517;43.562;19.540;2024-02-14T13:39:52;21.92;;;13.45;;
70150;SDS011;57517;43.562;19.540;2024-02-14T13:42:18;12.48;;;8.13;;
70150;SDS011;57517;43.562;19.540;2024-02-14T13:44:44;17.33;;;8.68;;
70150;SDS011;57517;43.562;19.540;2024-02-14T13:47:10;16.65;;;10.95;;
70150;SDS011;57517;43.562;19.540;2024-02-14T13:49:35;22.40;;;11.55;;
70150;SDS011;57517;43.562;19.540;2024-02-14T13:52:01;21.00;;;13.45;;
70150;SDS011;57517;43.562;19.540;2024-02-14T13:54:27;16.42;;;10.82;;
70150;SDS011;57517;43.562;19.540;2024-02-14T13:56:53;22.10;;;13.73;;
70150;SDS011;57517;43.562;19.540;2024-02-14T13:59:19;17.38;;;11.73;;
70150;SDS011;57517;43.562;19.540;2024-02-14T14:01:45;34.88;;;21.10;;
70150;SDS011;57517;43.562;19.540;2024-02-14T14:04:15;23.23;;;16.30;;
70150;SDS011;57517;43.562;19.540;2024-02-14T14:06:40;16.38;;;11.10;;
70150;SDS011;57517;43.562;19.540;2024-02-14T14:09:06;23.40;;;15.32;;
70150;SDS011;57517;43.562;19.540;2024-02-14T14:11:35;36.85;;;19.88;;
70150;SDS011;57517;43.562;19.540;2024-02-14T14:14:02;15.10;;;10.95;;
70150;SDS011;57517;43.562;19.540;2024-02-14T14:16:28;18.42;;;11.00;;